createdAt,value
2019-03-01T00:01:19.796Z,7.58
2019-03-01T00:03:57.909Z,8.93
2019-03-01T00:06:41.957Z,7.87
2019-03-01T00:09:39.706Z,8.43
2019-03-01T00:12:43.621Z,8.43
2019-03-01T00:15:30.541Z,8.35
2019-03-01T00:18:05.478Z,8.10
2019-03-01T00:20:48.997Z,7.08
2019-03-01T00:23:49.858Z,6.90
2019-03-01T00:26:33.697Z,7.75
2019-03-01T00:29:20.806Z,7.08
2019-03-01T00:31:58.596Z,7.12
2019-03-01T00:34:33.218Z,7.05
2019-03-01T00:37:10.927Z,8.05
2019-03-01T00:39:45.751Z,7.37
2019-03-01T00:42:37.097Z,7.87
2019-03-01T00:45:07.091Z,8.23
2019-03-01T00:47:36.186Z,7.92
2019-03-01T00:50:08.141Z,8.28
2019-03-01T00:52:38.680Z,6.92
2019-03-01T00:55:08.793Z,12.98
2019-03-01T00:57:37.995Z,8.35
2019-03-01T01:00:18.651Z,12.40
2019-03-01T01:02:47.651Z,13.93
2019-03-01T01:05:16.751Z,13.90
2019-03-01T01:07:46.041Z,10.03
2019-03-01T01:10:15.044Z,9.55
2019-03-01T01:12:44.032Z,13.98
2019-03-01T01:15:13.232Z,14.68
2019-03-01T01:17:42.223Z,12.90
2019-03-01T01:20:11.211Z,13.68
2019-03-01T01:22:40.320Z,14.78
2019-03-01T01:25:09.500Z,14.95
2019-03-01T01:27:38.501Z,13.22
2019-03-01T01:30:10.569Z,14.55
2019-03-01T01:32:42.639Z,19.98
2019-03-01T01:35:11.516Z,18.17
2019-03-01T01:37:42.674Z,22.52
2019-03-01T01:40:11.866Z,18.00
2019-03-01T01:42:40.846Z,16.23
2019-03-01T01:45:12.080Z,17.90
2019-03-01T01:47:41.204Z,18.30
2019-03-01T01:50:10.703Z,20.72
2019-03-01T01:52:39.812Z,18.57
2019-03-01T01:55:09.092Z,24.35
2019-03-01T01:57:38.180Z,29.10
2019-03-01T02:00:13.144Z,22.65
2019-03-01T02:02:42.212Z,26.93
2019-03-01T02:05:11.501Z,24.30
2019-03-01T02:07:40.722Z,22.55
2019-03-01T02:10:10.702Z,34.63
2019-03-01T02:12:39.616Z,25.45
2019-03-01T02:15:12.662Z,23.67
2019-03-01T02:17:41.701Z,24.67
2019-03-01T02:20:12.340Z,28.83
2019-03-01T02:22:41.540Z,24.37
2019-03-01T02:25:13.021Z,29.25
2019-03-01T02:27:42.089Z,29.50
2019-03-01T02:30:35.695Z,28.85
2019-03-01T02:33:06.822Z,25.85
2019-03-01T02:35:35.892Z,26.87
2019-03-01T02:38:04.876Z,29.72
2019-03-01T02:40:35.832Z,30.43
2019-03-01T02:43:05.737Z,26.97
2019-03-01T02:45:34.771Z,25.32
2019-03-01T02:48:03.827Z,27.95
2019-03-01T02:50:32.828Z,22.05
2019-03-01T02:53:01.917Z,26.75
2019-03-01T02:55:32.547Z,24.25
2019-03-01T02:58:01.639Z,24.72
2019-03-01T03:00:31.561Z,25.23
2019-03-01T03:03:00.439Z,22.15
2019-03-01T03:05:29.441Z,20.45
2019-03-01T03:08:02.825Z,20.27
2019-03-01T03:10:31.712Z,14.63
2019-03-01T03:13:03.187Z,12.07
2019-03-01T03:15:36.152Z,16.30
2019-03-01T03:18:05.153Z,14.18
2019-03-01T03:20:34.154Z,14.87
2019-03-01T03:23:03.351Z,11.53
2019-03-01T03:25:32.446Z,13.45
2019-03-01T03:28:01.326Z,15.20
2019-03-01T03:30:30.524Z,14.78
2019-03-01T03:32:59.617Z,18.60
2019-03-01T03:35:29.141Z,11.70
2019-03-01T03:37:58.222Z,15.28
2019-03-01T03:40:27.265Z,16.27
2019-03-01T03:42:56.420Z,17.32
2019-03-01T03:45:25.711Z,17.70
2019-03-01T03:47:54.696Z,15.40
2019-03-01T03:50:23.796Z,18.12
2019-03-01T03:52:52.986Z,10.45
2019-03-01T03:55:22.214Z,17.62
2019-03-01T03:57:51.187Z,18.48
2019-03-01T04:00:24.596Z,20.88
2019-03-01T04:02:53.702Z,18.92
2019-03-01T04:05:22.815Z,23.05
2019-03-01T04:07:52.080Z,19.52
2019-03-01T04:10:21.168Z,21.70
2019-03-01T04:12:50.183Z,18.37
2019-03-01T04:15:19.266Z,15.05
2019-03-01T04:17:48.149Z,12.68
2019-03-01T04:20:22.776Z,13.20
2019-03-01T04:22:51.781Z,22.58
2019-03-01T04:25:20.761Z,20.40
2019-03-01T04:27:49.865Z,17.42
2019-03-01T04:30:19.251Z,16.10
2019-03-01T04:32:48.351Z,19.30
2019-03-01T04:35:17.863Z,21.27
2019-03-01T04:37:47.161Z,20.05
2019-03-01T04:40:16.670Z,19.32
2019-03-01T04:42:45.651Z,14.28
2019-03-01T04:45:17.111Z,14.85
2019-03-01T04:47:46.095Z,16.60
2019-03-01T04:50:15.212Z,14.78
2019-03-01T04:52:44.400Z,18.02
2019-03-01T04:55:18.908Z,13.20
2019-03-01T04:57:47.906Z,17.85
2019-03-01T05:00:21.816Z,15.38
2019-03-01T05:02:50.806Z,18.02
2019-03-01T05:05:19.807Z,15.43
2019-03-01T05:07:49.306Z,18.85
2019-03-01T05:10:18.407Z,19.92
2019-03-01T05:12:47.510Z,16.93
2019-03-01T05:15:18.743Z,19.92
2019-03-01T05:17:48.653Z,12.35
2019-03-01T05:20:17.649Z,16.62
2019-03-01T05:22:46.846Z,21.55
2019-03-01T05:25:15.942Z,19.35
2019-03-01T05:27:44.932Z,20.70
2019-03-01T05:30:16.427Z,16.62
2019-03-01T05:32:45.462Z,17.42
2019-03-01T05:35:16.233Z,18.20
2019-03-01T05:37:45.314Z,16.17
2019-03-01T05:40:17.783Z,17.17
2019-03-01T05:42:46.797Z,17.62
2019-03-01T05:45:22.021Z,23.85
2019-03-01T05:47:51.518Z,22.10
2019-03-01T05:50:22.358Z,16.75
2019-03-01T05:52:51.662Z,17.85
2019-03-01T05:55:20.551Z,20.12
2019-03-01T05:58:21.803Z,20.05
2019-03-01T06:00:52.024Z,20.02
2019-03-01T06:03:57.266Z,17.85
2019-03-01T06:06:54.826Z,24.15
2019-03-01T06:09:35.486Z,19.10
2019-03-01T06:12:24.346Z,20.20
2019-03-01T06:15:14.136Z,19.90
2019-03-01T06:18:21.017Z,17.82
2019-03-01T06:21:09.666Z,17.55
2019-03-01T06:23:56.574Z,21.00
2019-03-01T06:26:43.998Z,21.70
2019-03-01T06:29:34.682Z,22.60
2019-03-01T06:32:24.791Z,16.40
2019-03-01T06:35:29.831Z,20.43
2019-03-01T06:38:33.809Z,21.75
2019-03-01T06:41:16.364Z,13.20
2019-03-01T06:43:50.975Z,21.42
2019-03-01T06:46:28.776Z,22.37
2019-03-01T06:48:59.411Z,20.43
2019-03-01T06:51:29.447Z,20.72
2019-03-01T06:53:58.415Z,23.15
2019-03-01T06:56:27.697Z,25.92
2019-03-01T06:58:57.022Z,24.67
2019-03-01T07:01:27.353Z,19.67
2019-03-01T07:03:57.490Z,22.93
2019-03-01T07:06:26.549Z,25.82
2019-03-01T07:08:55.437Z,22.48
2019-03-01T07:11:26.487Z,22.22
2019-03-01T07:13:55.481Z,24.65
2019-03-01T07:16:24.471Z,19.65
2019-03-01T07:18:53.870Z,18.67
2019-03-01T07:21:22.862Z,17.67
2019-03-01T07:23:51.751Z,18.45
2019-03-01T07:26:20.851Z,19.17
2019-03-01T07:28:49.843Z,19.45
2019-03-01T07:31:18.849Z,18.77
2019-03-01T07:33:48.352Z,17.50
2019-03-01T07:36:17.339Z,16.23
2019-03-01T07:38:46.331Z,14.95
2019-03-01T07:41:15.631Z,12.95
2019-03-01T07:43:44.631Z,16.82
2019-03-01T07:46:13.721Z,19.62
2019-03-01T07:48:42.818Z,14.45
2019-03-01T07:51:11.701Z,11.25
2019-03-01T07:53:42.041Z,8.73
2019-03-01T07:56:11.541Z,8.60
2019-03-01T07:58:40.535Z,7.90
2019-03-01T08:01:09.734Z,6.17
2019-03-01T08:03:38.835Z,7.30
2019-03-01T08:06:13.138Z,6.65
2019-03-01T08:08:38.806Z,6.95
2019-03-01T08:11:09.281Z,6.03
2019-03-01T08:13:38.278Z,6.65
2019-03-01T08:16:07.276Z,6.78
2019-03-01T08:18:36.468Z,5.70
2019-03-01T08:21:06.384Z,4.28
2019-03-01T08:23:36.092Z,5.90
2019-03-01T08:26:05.446Z,5.55
2019-03-01T08:28:34.594Z,5.17
2019-03-01T08:31:03.689Z,4.83
2019-03-01T08:33:32.688Z,4.00
2019-03-01T08:36:02.422Z,4.95
2019-03-01T08:38:33.394Z,3.40
2019-03-01T08:41:02.748Z,4.70
2019-03-01T08:43:31.721Z,3.50
2019-03-01T08:46:00.933Z,4.30
2019-03-01T08:48:30.546Z,3.83
2019-03-01T08:51:00.938Z,4.95
2019-03-01T08:53:29.976Z,3.95
2019-03-01T08:55:59.568Z,5.67
2019-03-01T08:58:28.648Z,5.15
2019-03-01T09:00:59.906Z,4.65
2019-03-01T09:03:43.866Z,5.03
2019-03-01T09:06:12.945Z,5.83
2019-03-01T09:08:42.916Z,4.22
2019-03-01T09:11:14.107Z,5.20
2019-03-01T09:13:42.972Z,4.40
2019-03-01T09:16:12.088Z,5.17
2019-03-01T09:18:41.186Z,5.55
2019-03-01T09:21:12.956Z,5.50
2019-03-01T09:23:40.925Z,3.95
2019-03-01T09:26:10.212Z,3.80
2019-03-01T09:28:39.884Z,5.40
2019-03-01T09:31:09.212Z,4.55
2019-03-01T09:33:38.306Z,4.37
2019-03-01T09:36:14.352Z,4.83
2019-03-01T09:38:43.780Z,4.15
2019-03-01T09:41:13.068Z,4.25
2019-03-01T09:43:42.171Z,3.72
2019-03-01T09:46:11.385Z,4.33
2019-03-01T09:48:40.468Z,3.95
2019-03-01T09:51:10.647Z,4.10
2019-03-01T09:53:40.788Z,3.92
2019-03-01T09:56:12.962Z,3.58
2019-03-01T09:58:41.148Z,4.55
2019-03-01T10:01:13.197Z,3.27
2019-03-01T10:03:42.202Z,4.08
2019-03-01T10:06:11.048Z,3.35
2019-03-01T10:08:40.388Z,4.30
2019-03-01T10:11:09.488Z,3.62
2019-03-01T10:13:38.592Z,2.72
2019-03-01T10:16:07.973Z,4.80
2019-03-01T10:18:37.068Z,3.95
2019-03-01T10:21:06.168Z,3.42
2019-03-01T10:23:35.464Z,2.87
2019-03-01T10:26:04.662Z,3.15
2019-03-01T10:28:34.834Z,3.05
2019-03-01T10:31:04.185Z,2.67
2019-03-01T10:33:33.172Z,3.80
2019-03-01T10:36:02.291Z,3.40
2019-03-01T10:38:31.546Z,3.27
2019-03-01T10:41:00.590Z,4.08
2019-03-01T10:43:29.656Z,4.10
2019-03-01T10:45:58.767Z,3.33
2019-03-01T10:48:27.868Z,3.37
2019-03-01T10:50:57.073Z,3.85
2019-03-01T10:53:26.283Z,3.60
2019-03-01T10:55:55.448Z,4.25
2019-03-01T10:58:24.556Z,4.40
2019-03-01T11:00:54.040Z,4.22
2019-03-01T11:03:23.060Z,3.92
2019-03-01T11:05:53.010Z,4.65
2019-03-01T11:08:22.253Z,4.17
2019-03-01T11:10:51.248Z,3.80
2019-03-01T11:13:20.267Z,4.78
2019-03-01T11:15:49.333Z,4.00
2019-03-01T11:18:18.423Z,3.80
2019-03-01T11:20:47.627Z,3.25
2019-03-01T11:23:16.828Z,3.92
2019-03-01T11:25:45.848Z,4.15
2019-03-01T11:28:14.929Z,3.45
2019-03-01T11:30:44.158Z,3.27
2019-03-01T11:33:13.438Z,3.85
2019-03-01T11:35:42.623Z,3.80
2019-03-01T11:38:11.923Z,3.60
2019-03-01T11:40:41.002Z,3.33
2019-03-01T11:43:09.996Z,3.25
2019-03-01T11:45:39.295Z,2.37
2019-03-01T11:48:08.486Z,2.90
2019-03-01T11:50:39.029Z,3.02
2019-03-01T11:53:08.322Z,3.85
2019-03-01T11:55:37.306Z,3.22
2019-03-01T11:58:06.328Z,3.02
2019-03-01T12:00:35.500Z,2.98
2019-03-01T12:03:04.798Z,3.00
2019-03-01T12:05:33.894Z,3.10
2019-03-01T12:08:03.222Z,3.92
2019-03-01T12:10:32.696Z,2.72
2019-03-01T12:13:01.720Z,2.35
2019-03-01T12:15:30.908Z,3.25
2019-03-01T12:17:59.892Z,2.70
2019-03-01T12:20:30.775Z,2.20
2019-03-01T12:23:00.121Z,2.52
2019-03-01T12:25:29.246Z,2.85
2019-03-01T12:27:58.327Z,2.40
2019-03-01T12:30:27.947Z,2.75
2019-03-01T12:32:57.019Z,2.87
2019-03-01T12:35:26.128Z,2.70
2019-03-01T12:37:55.326Z,2.90
2019-03-01T12:40:29.117Z,2.77
2019-03-01T12:42:58.117Z,2.83
2019-03-01T12:45:27.409Z,2.60
2019-03-01T12:47:56.529Z,2.60
2019-03-01T12:50:25.608Z,2.50
2019-03-01T12:52:54.810Z,2.10
2019-03-01T12:55:28.508Z,2.50
2019-03-01T12:57:57.483Z,2.30
2019-03-01T13:00:31.823Z,2.25
2019-03-01T13:03:00.928Z,2.05
2019-03-01T13:05:30.422Z,2.20
2019-03-01T13:07:59.719Z,2.52
2019-03-01T13:10:31.688Z,1.85
2019-03-01T13:13:02.111Z,2.55
2019-03-01T13:15:31.607Z,1.90
2019-03-01T13:18:03.274Z,1.90
2019-03-01T13:20:33.711Z,2.00
2019-03-01T13:23:04.650Z,2.08
2019-03-01T13:25:34.049Z,2.20
2019-03-01T13:28:03.085Z,1.90
2019-03-01T13:30:32.563Z,1.90
2019-03-01T13:33:03.585Z,1.80
2019-03-01T13:35:32.847Z,1.80
2019-03-01T13:38:03.784Z,2.20
2019-03-01T13:40:32.808Z,2.40
2019-03-01T13:43:01.688Z,2.08
2019-03-01T13:45:30.911Z,2.00
2019-03-01T13:48:00.008Z,2.10
2019-03-01T13:50:29.188Z,1.90
2019-03-01T13:52:58.300Z,2.22
2019-03-01T13:55:27.712Z,1.98
2019-03-01T13:57:57.188Z,1.92
2019-03-01T14:00:26.404Z,1.95
2019-03-01T14:02:55.375Z,2.35
2019-03-01T14:05:24.505Z,2.17
2019-03-01T14:07:56.588Z,1.80
2019-03-01T14:10:26.266Z,1.90
2019-03-01T14:12:55.448Z,1.72
2019-03-01T14:15:24.760Z,1.60
2019-03-01T14:17:54.042Z,1.50
2019-03-01T14:20:23.469Z,1.67
2019-03-01T14:22:52.563Z,1.90
2019-03-01T14:25:21.647Z,1.60
2019-03-01T14:27:52.794Z,1.65
2019-03-01T14:30:30.264Z,1.60
2019-03-01T14:32:58.860Z,1.80
2019-03-01T14:35:28.158Z,1.72
2019-03-01T14:37:57.268Z,1.67
2019-03-01T14:40:26.256Z,1.50
2019-03-01T14:42:55.248Z,1.80
2019-03-01T14:45:26.233Z,1.70
2019-03-01T14:47:55.724Z,1.82
2019-03-01T14:50:26.008Z,2.17
2019-03-01T14:52:58.137Z,2.30
2019-03-01T14:55:35.053Z,1.60
2019-03-01T14:58:23.401Z,1.67
2019-03-01T15:01:01.299Z,1.80
2019-03-01T15:03:38.159Z,1.82
2019-03-01T15:06:07.805Z,1.40
2019-03-01T15:08:40.614Z,1.35
2019-03-01T15:11:13.839Z,1.80
2019-03-01T15:13:43.516Z,2.58
2019-03-01T15:16:12.691Z,2.00
2019-03-01T15:18:42.908Z,2.20
2019-03-01T15:21:13.235Z,1.82
2019-03-01T15:23:42.328Z,2.33
2019-03-01T15:26:12.006Z,2.90
2019-03-01T15:28:54.373Z,2.83
2019-03-01T15:31:21.599Z,3.17
2019-03-01T15:33:50.454Z,3.05
2019-03-01T15:36:19.592Z,3.67
2019-03-01T15:38:48.655Z,3.98
2019-03-01T15:41:17.767Z,3.65
2019-03-01T15:43:46.858Z,3.55
2019-03-01T15:46:17.855Z,3.98
2019-03-01T15:48:46.691Z,3.65
2019-03-01T15:51:15.684Z,2.92
2019-03-01T15:53:44.868Z,4.58
2019-03-01T15:56:13.839Z,3.83
2019-03-01T15:58:42.742Z,3.20
2019-03-01T16:01:12.187Z,3.02
2019-03-01T16:03:42.162Z,2.70
2019-03-01T16:06:17.283Z,2.35
2019-03-01T16:08:43.953Z,2.75
2019-03-01T16:11:12.825Z,2.60
2019-03-01T16:13:47.782Z,2.02
2019-03-01T16:16:13.756Z,2.55
2019-03-01T16:18:43.717Z,3.52
2019-03-01T16:21:12.808Z,3.05
2019-03-01T16:23:42.008Z,2.60
2019-03-01T16:26:11.088Z,1.80
2019-03-01T16:28:41.007Z,1.77
2019-03-01T16:31:10.107Z,1.32
2019-03-01T16:33:39.207Z,1.60
2019-03-01T16:36:10.770Z,2.00
2019-03-01T16:38:41.205Z,2.12
2019-03-01T16:41:10.589Z,2.00
2019-03-01T16:43:39.688Z,1.70
2019-03-01T16:46:08.988Z,1.92
2019-03-01T16:48:37.968Z,1.87
2019-03-01T16:51:07.068Z,2.10
2019-03-01T16:53:36.700Z,2.12
2019-03-01T16:56:06.929Z,1.80
2019-03-01T16:58:35.988Z,1.90
2019-03-01T17:01:05.288Z,1.90
2019-03-01T17:03:34.388Z,2.00
2019-03-01T17:06:03.586Z,2.12
2019-03-01T17:08:32.989Z,1.70
2019-03-01T17:11:02.621Z,2.10
2019-03-01T17:13:33.751Z,1.57
2019-03-01T17:16:03.047Z,1.80
2019-03-01T17:18:32.125Z,2.40
2019-03-01T17:21:01.264Z,1.50
2019-03-01T17:23:30.414Z,1.87
2019-03-01T17:25:59.528Z,1.60
2019-03-01T17:28:28.412Z,1.60
2019-03-01T17:30:58.212Z,1.62
2019-03-01T17:33:27.321Z,1.70
2019-03-01T17:35:56.306Z,1.60
2019-03-01T17:38:25.925Z,1.80
2019-03-01T17:40:55.012Z,1.87
2019-03-01T17:43:25.921Z,1.80
2019-03-01T17:45:57.774Z,2.12
2019-03-01T17:48:26.808Z,2.15
2019-03-01T17:50:56.029Z,1.82
2019-03-01T17:53:25.201Z,2.62
2019-03-01T17:55:54.318Z,2.30
2019-03-01T17:58:25.130Z,2.58
2019-03-01T18:00:54.428Z,2.20
2019-03-01T18:03:23.358Z,2.12
2019-03-01T18:05:52.429Z,2.30
2019-03-01T18:08:21.595Z,2.10
2019-03-01T18:10:50.603Z,1.90
2019-03-01T18:13:19.614Z,2.00
2019-03-01T18:15:49.700Z,2.20
2019-03-01T18:18:18.916Z,2.05
2019-03-01T18:20:48.031Z,2.40
2019-03-01T18:23:16.999Z,2.40
2019-03-01T18:25:45.888Z,1.95
2019-03-01T18:28:15.012Z,2.00
2019-03-01T18:30:44.179Z,2.52
2019-03-01T18:33:16.726Z,2.47
2019-03-01T18:35:44.128Z,2.65
2019-03-01T18:38:13.428Z,2.50
2019-03-01T18:40:42.313Z,2.17
2019-03-01T18:43:13.092Z,2.75
2019-03-01T18:45:43.148Z,2.58
2019-03-01T18:48:13.485Z,2.45
2019-03-01T18:50:42.580Z,2.40
2019-03-01T18:53:11.887Z,2.12
2019-03-01T18:55:40.974Z,2.90
2019-03-01T18:58:10.472Z,2.45
2019-03-01T19:00:49.614Z,2.72
2019-03-01T19:03:20.265Z,2.50
2019-03-01T19:05:49.347Z,2.15
2019-03-01T19:08:18.545Z,2.22
2019-03-01T19:10:53.925Z,2.20
2019-03-01T19:13:20.802Z,2.22
2019-03-01T19:15:54.377Z,2.50
2019-03-01T19:18:19.628Z,2.70
2019-03-01T19:20:53.420Z,2.83
2019-03-01T19:23:22.628Z,2.27
2019-03-01T19:25:51.619Z,2.60
2019-03-01T19:28:23.575Z,2.20
2019-03-01T19:30:51.252Z,2.10
2019-03-01T19:33:20.241Z,2.05
2019-03-01T19:35:49.327Z,2.10
2019-03-01T19:38:21.798Z,2.40
2019-03-01T19:40:49.168Z,1.70
2019-03-01T19:43:20.201Z,1.62
2019-03-01T19:45:49.307Z,1.60
2019-03-01T19:48:18.302Z,1.60
2019-03-01T19:50:47.289Z,1.60
2019-03-01T19:53:16.593Z,1.80
2019-03-01T19:55:47.306Z,1.70
2019-03-01T19:58:16.868Z,1.35
2019-03-01T20:00:46.648Z,1.72
2019-03-01T20:03:15.748Z,1.70
2019-03-01T20:05:44.723Z,1.72
2019-03-01T20:08:14.048Z,1.37
2019-03-01T20:10:43.248Z,1.90
2019-03-01T20:13:12.995Z,2.02
2019-03-01T20:15:46.176Z,1.62
2019-03-01T20:18:14.606Z,1.87
2019-03-01T20:20:43.686Z,1.40
2019-03-01T20:23:12.808Z,1.80
2019-03-01T20:25:41.928Z,1.55
2019-03-01T20:28:11.499Z,1.65
2019-03-01T20:30:41.928Z,1.90
2019-03-01T20:33:11.028Z,1.90
2019-03-01T20:35:40.129Z,1.90
2019-03-01T20:38:09.330Z,1.62
2019-03-01T20:40:38.629Z,1.70
2019-03-01T20:43:07.823Z,1.90
2019-03-01T20:45:38.938Z,1.50
2019-03-01T20:48:08.064Z,1.62
2019-03-01T20:50:37.165Z,1.42
2019-03-01T20:53:06.448Z,1.60
2019-03-01T20:55:37.198Z,1.35
2019-03-01T20:58:06.187Z,1.70
2019-03-01T21:00:35.388Z,1.70
2019-03-01T21:03:04.492Z,1.55
2019-03-01T21:05:33.683Z,1.55
2019-03-01T21:08:02.833Z,1.50
2019-03-01T21:10:33.134Z,1.60
2019-03-01T21:13:03.919Z,1.70
2019-03-01T21:15:34.595Z,1.60
2019-03-01T21:18:03.768Z,1.60
2019-03-01T21:20:32.747Z,1.30
2019-03-01T21:23:02.135Z,1.57
2019-03-01T21:25:31.159Z,1.60
2019-03-01T21:28:00.937Z,1.42
2019-03-01T21:30:32.128Z,1.05
2019-03-01T21:33:01.207Z,1.22
2019-03-01T21:35:30.278Z,1.32
2019-03-01T21:37:59.388Z,1.20
2019-03-01T21:40:31.372Z,1.30
2019-03-01T21:43:00.175Z,1.30
2019-03-01T21:45:29.730Z,1.50
2019-03-01T21:47:58.850Z,1.50
2019-03-01T21:50:27.928Z,1.10
2019-03-01T21:52:57.240Z,1.50
2019-03-01T21:55:28.573Z,1.40
2019-03-01T21:57:58.700Z,1.45
2019-03-01T22:00:31.447Z,1.65
2019-03-01T22:03:00.788Z,1.10
2019-03-01T22:05:29.888Z,1.20
2019-03-01T22:07:59.087Z,1.50
2019-03-01T22:10:28.072Z,1.30
2019-03-01T22:13:00.527Z,1.30
2019-03-01T22:15:28.825Z,1.30
2019-03-01T22:17:57.702Z,1.52
2019-03-01T22:20:26.888Z,1.50
2019-03-01T22:22:56.212Z,1.50
2019-03-01T22:25:25.310Z,1.40
2019-03-01T22:27:54.293Z,1.50
2019-03-01T22:30:33.347Z,1.50
2019-03-01T22:33:02.426Z,2.08
2019-03-01T22:35:31.513Z,1.50
2019-03-01T22:38:01.023Z,1.47
2019-03-01T22:40:31.133Z,1.77
2019-03-01T22:43:00.238Z,1.37
2019-03-01T22:45:29.327Z,1.77
2019-03-01T22:47:58.428Z,1.82
2019-03-01T22:50:27.610Z,1.57
2019-03-01T22:52:56.818Z,1.70
2019-03-01T22:55:25.808Z,1.67
2019-03-01T22:57:57.769Z,1.67
2019-03-01T23:00:54.435Z,1.57
2019-03-01T23:03:25.035Z,1.60
2019-03-01T23:05:53.523Z,1.72
2019-03-01T23:08:22.513Z,1.70
2019-03-01T23:10:53.839Z,1.70
2019-03-01T23:13:24.200Z,1.57
2019-03-01T23:15:53.293Z,1.98
2019-03-01T23:18:22.383Z,1.70
2019-03-01T23:20:51.367Z,1.47
2019-03-01T23:23:23.897Z,1.50
2019-03-01T23:25:51.103Z,1.80
2019-03-01T23:28:20.203Z,1.60
2019-03-01T23:30:49.248Z,1.65
2019-03-01T23:33:18.388Z,1.70
2019-03-01T23:35:49.681Z,1.85
2019-03-01T23:38:18.011Z,2.12
2019-03-01T23:40:47.012Z,2.20
2019-03-01T23:43:16.102Z,1.80
2019-03-01T23:45:45.206Z,2.00
2019-03-01T23:48:14.629Z,2.25
2019-03-01T23:50:43.798Z,2.10
2019-03-01T23:53:12.987Z,1.90
2019-03-01T23:55:41.991Z,2.30
2019-03-01T23:58:12.616Z,2.20
